Time;durP1;ratioP1;P1;durP2;ratioP2;P2;SDS_P1;SDS_P2;PMS_P1;PMS_P2;Temp;Humidity;BMP_temperature;BMP_pressure;BME280_temperature;BME280_humidity;BME280_pressure;Samples;Min_cycle;Max_cycle;Signal;HPM_P1;HPM_P2
2021/12/08 00:00:51;;;;;;;15.60;9.07;;;;;;;1.45;90.51;99130.59;5021185;28;20043;-88
2021/12/08 00:03:18;;;;;;;13.80;7.30;;;;;;;1.48;90.12;99132.19;5034399;28;20029;-89
2021/12/08 00:05:45;;;;;;;13.25;7.10;;;;;;;1.44;89.69;99125.50;5033956;28;20056;-88
2021/12/08 00:08:17;;;;;;;11.73;7.10;;;;;;;1.44;90.09;99123.75;5040685;28;20120;-89
2021/12/08 00:13:01;;;;;;;14.60;7.65;;;;;;;1.41;89.76;99116.19;5026158;28;20033;-89
2021/12/08 00:13:36;;;;;;;14.15;7.80;;;;;;;1.47;89.57;99115.03;5027543;28;20064;-88
2021/12/08 00:16:09;;;;;;;12.15;7.97;;;;;;;1.47;89.50;99115.03;5034211;28;20061;-88
2021/12/08 00:18:36;;;;;;;10.70;7.45;;;;;;;1.48;88.93;99111.53;5032283;28;20381;-88
2021/12/08 00:21:07;;;;;;;13.15;7.93;;;;;;;1.48;88.87;99108.94;5033000;28;20067;-89
2021/12/08 00:23:33;;;;;;;14.57;7.45;;;;;;;1.49;88.76;99096.88;5031999;28;20374;-89
2021/12/08 00:25:58;;;;;;;12.40;6.60;;;;;;;1.49;88.39;99091.72;5025125;28;20500;-89
2021/12/08 00:28:28;;;;;;;11.93;6.93;;;;;;;1.48;88.18;99092.59;5032098;28;20128;-88
2021/12/08 00:30:55;;;;;;;;;;;;;;;1.45;88.16;99085.88;5034017;28;20037;-88
2021/12/08 00:33:23;;;;;;;10.82;6.78;;;;;;;1.43;88.46;99079.94;5032681;28;19916;-88
2021/12/08 00:35:55;;;;;;;12.60;6.82;;;;;;;1.40;87.97;99077.50;5033513;28;20061;-90
2021/12/08 00:38:23;;;;;;;15.70;7.30;;;;;;;1.40;88.06;99062.00;5031763;28;20105;-88
2021/12/08 00:40:50;;;;;;;16.00;8.20;;;;;;;1.37;88.15;99063.00;5032397;28;20034;-88
2021/12/08 00:43:19;;;;;;;13.68;8.88;;;;;;;1.36;87.67;99045.00;5033468;28;20033;-88
2021/12/08 00:45:48;;;;;;;15.35;8.50;;;;;;;1.36;87.78;99047.56;5031598;28;20478;-88
2021/12/08 00:48:17;;;;;;;15.70;8.23;;;;;;;1.34;88.05;99041.66;5034626;28;20029;-87
2021/12/08 00:50:45;;;;;;;18.65;8.38;;;;;;;1.37;87.89;99033.75;5033854;28;20049;-89
2021/12/08 00:53:16;;;;;;;14.98;8.48;;;;;;;1.41;87.35;99036.13;5032237;28;20064;-88
2021/12/08 00:55:42;;;;;;;16.27;9.52;;;;;;;1.40;87.00;99025.84;5033342;28;20041;-87
2021/12/08 00:58:11;;;;;;;17.48;8.95;;;;;;;1.38;86.99;99028.50;5031858;28;20033;-88
2021/12/08 01:00:43;;;;;;;19.73;9.50;;;;;;;1.40;86.83;99026.69;5031976;28;20021;-88
2021/12/08 01:03:11;;;;;;;18.20;10.27;;;;;;;1.36;85.86;99016.59;5032242;28;20068;-88
2021/12/08 01:05:42;;;;;;;17.52;9.75;;;;;;;1.39;86.54;99013.84;5033413;28;20037;-88
2021/12/08 01:08:08;;;;;;;19.38;10.20;;;;;;;1.36;85.82;99006.25;5031299;28;20175;-90
2021/12/08 01:10:37;;;;;;;21.33;10.23;;;;;;;1.36;85.67;98999.34;5025472;28;20635;-88
2021/12/08 01:13:05;;;;;;;;;;;;;;;1.35;85.68;98987.34;5032835;28;20037;-87
2021/12/08 01:15:39;;;;;;;22.05;10.85;;;;;;;1.36;85.41;98983.00;5033608;28;19921;-88
2021/12/08 01:18:09;;;;;;;25.10;11.18;;;;;;;1.33;84.83;98984.00;5035604;28;20097;-86
2021/12/08 01:20:41;;;;;;;26.25;12.43;;;;;;;1.30;85.01;98972.97;5044251;28;20037;-87
2021/12/08 01:23:06;;;;;;;23.40;11.60;;;;;;;1.29;84.75;98971.31;5035178;28;20040;-88
2021/12/08 01:25:32;;;;;;;26.23;12.02;;;;;;;1.28;84.76;98960.16;5034440;28;20045;-88
2021/12/08 01:28:00;;;;;;;22.00;11.57;;;;;;;1.29;84.65;98956.66;5030906;28;20113;-87
2021/12/08 01:30:26;;;;;;;25.83;12.23;;;;;;;1.28;83.71;98956.75;5028668;28;20026;-88
2021/12/08 01:32:53;;;;;;;24.20;11.60;;;;;;;1.28;83.77;98936.94;5035450;28;20032;-87
2021/12/08 01:35:20;;;;;;;23.05;12.07;;;;;;;1.27;84.10;98926.69;5034965;28;20101;-88
2021/12/08 01:37:55;;;;;;;25.80;12.25;;;;;;;1.29;83.41;98919.69;5032124;28;20133;-87
2021/12/08 01:40:23;;;;;;;23.55;12.07;;;;;;;1.28;83.56;98910.28;5027188;28;20033;-88
2021/12/08 01:42:59;;;;;;;21.38;11.48;;;;;;;1.29;83.56;98896.44;5032324;28;20034;-88
2021/12/08 01:48:15;;;;;;;25.20;11.93;;;;;;;1.34;83.39;98897.06;5036253;28;20091;-89
2021/12/08 01:50:48;;;;;;;23.98;11.82;;;;;;;1.36;82.98;98908.97;5044588;28;20099;-89
2021/12/08 01:53:14;;;;;;;24.42;11.30;;;;;;;1.33;82.94;98896.19;5036789;28;20478;-89
2021/12/08 01:55:58;;;;;;;24.60;10.85;;;;;;;1.33;82.80;98898.78;5036037;28;20103;-90
2021/12/08 01:58:26;;;;;;;20.33;10.50;;;;;;;1.35;82.61;98896.16;5037243;28;20123;-88
2021/12/08 02:00:59;;;;;;;20.65;11.95;;;;;;;1.31;82.12;98902.38;5039303;28;20045;-89
2021/12/08 02:03:30;;;;;;;21.95;10.57;;;;;;;1.31;82.84;98899.81;5048919;28;20021;-89
2021/12/08 02:05:56;;;;;;;23.63;11.32;;;;;;;1.28;82.11;98911.09;5051447;28;20029;-87
2021/12/08 02:08:28;;;;;;;21.92;9.82;;;;;;;1.26;82.63;98920.69;5044835;28;20060;-88
2021/12/08 02:10:58;;;;;;;21.27;11.52;;;;;;;1.21;82.66;98920.06;5054506;28;20025;-87
2021/12/08 02:13:30;;;;;;;23.77;11.43;;;;;;;1.16;83.16;98922.06;5053441;28;20037;-87
2021/12/08 02:15:56;;;;;;;22.90;10.73;;;;;;;1.18;82.74;98920.22;5053529;28;20045;-87
2021/12/08 02:18:23;;;;;;;24.80;10.38;;;;;;;1.19;82.86;98911.59;5053686;28;20025;-88
2021/12/08 02:20:51;;;;;;;22.55;11.55;;;;;;;1.17;82.87;98903.91;5049630;28;20050;-86
2021/12/08 02:23:21;;;;;;;22.50;10.98;;;;;;;1.15;82.93;98904.88;5053608;28;20473;-87
2021/12/08 02:25:49;;;;;;;21.63;10.32;;;;;;;1.11;82.88;98909.41;5028667;28;20037;-87
2021/12/08 02:28:18;;;;;;;19.60;10.18;;;;;;;1.07;82.76;98917.34;5042299;28;20203;-87
2021/12/08 02:30:52;;;;;;;24.33;11.80;;;;;;;1.01;83.45;98926.25;5041215;28;20038;-87
2021/12/08 02:47:57;;;;;;;19.90;10.13;;;;;;;0.86;84.01;98912.38;5012579;28;20481;-88
2021/12/08 02:50:07;;;;;;;22.30;11.15;;;;;;;0.95;83.66;98911.06;5021265;28;20464;-89
2021/12/08 02:52:32;;;;;;;23.77;10.98;;;;;;;0.93;83.44;98908.56;5029764;28;20135;-87
2021/12/08 02:55:04;;;;;;;24.45;11.20;;;;;;;0.94;83.70;98917.16;5023372;28;20088;-89
2021/12/08 02:57:32;;;;;;;20.95;10.30;;;;;;;0.95;83.84;98909.31;5040735;28;20054;-88
2021/12/08 02:59:58;;;;;;;22.20;11.82;;;;;;;0.96;83.79;98907.56;5031429;28;20021;-88
2021/12/08 03:02:27;;;;;;;24.70;11.77;;;;;;;0.90;83.56;98918.22;5029124;28;20060;-90
2021/12/08 03:04:55;;;;;;;24.90;12.38;;;;;;;0.92;84.04;98900.91;5022997;28;20033;-89
2021/12/08 03:07:21;;;;;;;26.20;12.38;;;;;;;0.91;83.88;98902.66;5023195;28;20137;-90
2021/12/08 03:09:49;;;;;;;21.33;10.43;;;;;;;0.86;83.96;98898.63;5029798;28;20040;-88
2021/12/08 03:12:14;;;;;;;23.75;11.48;;;;;;;0.85;84.55;98895.19;5031769;28;20021;-87
2021/12/08 03:14:44;;;;;;;21.80;11.23;;;;;;;0.84;84.61;98882.38;5031946;28;20092;-89
2021/12/08 03:17:09;;;;;;;31.70;14.00;;;;;;;0.81;84.44;98878.19;5033563;28;20037;-87
2021/12/08 03:19:35;;;;;;;25.90;12.68;;;;;;;0.77;84.34;98878.44;5026492;28;20034;-89
2021/12/08 03:22:08;;;;;;;26.65;12.30;;;;;;;0.70;84.97;98883.91;5032788;28;20034;-89
2021/12/08 03:24:37;;;;;;;26.35;12.25;;;;;;;0.69;85.30;98878.81;5033338;28;20430;-88
2021/12/08 03:27:11;;;;;;;28.98;12.35;;;;;;;0.66;84.99;98869.47;5033715;28;20079;-89
2021/12/08 03:32:13;;;;;;;26.15;13.00;;;;;;;0.61;85.76;98884.34;5035007;28;20351;-89
2021/12/08 03:34:50;;;;;;;27.70;13.40;;;;;;;0.57;85.50;98869.13;5033626;28;20103;-89
2021/12/08 03:37:19;;;;;;;28.60;13.57;;;;;;;0.61;85.13;98861.16;5034905;28;20044;-89
2021/12/08 03:39:49;;;;;;;31.67;13.90;;;;;;;0.63;84.77;98859.34;5034874;28;20048;-88
2021/12/08 03:42:15;;;;;;;28.17;12.80;;;;;;;0.60;84.96;98858.66;5034500;28;20637;-89
2021/12/08 03:44:46;;;;;;;27.70;13.23;;;;;;;0.60;84.94;98863.81;5026849;28;20060;-88
2021/12/08 03:47:28;;;;;;;;;;;;;;;;;;;;;
2021/12/08 03:50:06;;;;;;;29.70;13.52;;;;;;;0.52;85.32;98863.34;5037165;28;20036;-88
2021/12/08 03:52:37;;;;;;;26.48;13.38;;;;;;;0.51;85.36;98862.50;5034412;28;20171;-89
2021/12/08 03:55:06;;;;;;;29.35;13.57;;;;;;;0.49;85.42;98861.75;5038891;28;20040;-90
2021/12/08 03:57:32;;;;;;;21.13;11.88;;;;;;;0.43;85.55;98862.03;5026883;28;20040;-90
2021/12/08 04:00:06;;;;;;;28.15;13.40;;;;;;;0.39;86.27;98873.41;5014207;28;20108;-89
2021/12/08 04:02:36;;;;;;;34.38;13.45;;;;;;;0.34;86.26;98868.50;5005991;28;20045;-90
2021/12/08 04:05:05;;;;;;;29.65;12.50;;;;;;;0.36;86.44;98868.41;5019587;28;20037;-90
2021/12/08 04:07:36;;;;;;;32.00;13.18;;;;;;;0.39;86.60;98860.53;5011762;28;20132;-88
2021/12/08 04:10:05;;;;;;;29.17;12.88;;;;;;;0.39;86.57;98866.50;5035492;28;20037;-88
2021/12/08 04:12:39;;;;;;;29.83;13.00;;;;;;;0.40;85.80;98869.91;5026080;28;20519;-90
2021/12/08 04:15:19;;;;;;;26.70;11.88;;;;;;;0.47;85.51;98876.44;5036822;28;20041;-88
2021/12/08 04:17:50;;;;;;;29.25;12.77;;;;;;;0.48;85.49;98870.38;5043428;28;20171;-89
2021/12/08 04:20:20;;;;;;;30.05;13.20;;;;;;;0.54;85.53;98867.50;5043486;28;20034;-89
2021/12/08 04:22:51;;;;;;;31.25;13.38;;;;;;;0.55;85.31;98869.16;5045042;28;20527;-86
2021/12/08 04:25:22;;;;;;;29.02;13.73;;;;;;;0.60;84.90;98862.06;5014714;28;20107;-90
2021/12/08 04:27:52;;;;;;;26.55;12.57;;;;;;;0.66;84.33;98856.59;5039576;28;20037;-89
2021/12/08 04:30:41;;;;;;;25.90;12.88;;;;;;;0.73;84.18;98860.53;5034332;28;20064;-89
2021/12/08 04:33:10;;;;;;;26.35;12.88;;;;;;;0.78;84.11;98855.16;5034425;28;20041;-90
2021/12/08 04:35:38;;;;;;;;;;;;;;;0.81;83.69;98862.72;5018928;28;20037;-90
2021/12/08 04:38:35;;;;;;;23.83;11.85;;;;;;;0.83;84.00;98862.66;5027363;28;19931;-89
2021/12/08 04:41:05;;;;;;;22.98;11.05;;;;;;;0.87;83.59;98869.34;5035066;28;20033;-89
2021/12/08 04:43:41;;;;;;;23.02;11.55;;;;;;;0.87;83.62;98871.91;5027763;28;20087;-88
2021/12/08 04:51:48;;;;;;;25.60;10.88;;;;;;;0.98;83.00;98900.59;5038798;28;20458;-87
2021/12/08 05:01:12;;;;;;;23.65;10.57;;;;;;;1.10;82.84;98901.72;5037049;28;20032;-90
2021/12/08 05:06:25;;;;;;;22.25;11.07;;;;;;;1.15;83.02;98902.31;5037652;28;20101;-89
2021/12/08 05:08:55;;;;;;;21.23;10.60;;;;;;;1.16;82.59;98899.66;5033440;28;20045;-89
2021/12/08 05:11:28;;;;;;;25.27;11.95;;;;;;;1.19;82.75;98894.34;5046518;28;20036;-89
2021/12/08 05:14:22;;;;;;;26.30;12.00;;;;;;;1.23;82.99;98892.44;5027773;28;20049;-89
2021/12/08 05:16:58;;;;;;;24.73;11.40;;;;;;;1.29;82.73;98880.97;5023088;28;20358;-88
2021/12/08 05:19:33;;;;;;;24.85;12.07;;;;;;;1.28;81.55;98874.97;5026343;28;20034;-89
2021/12/08 05:22:13;;;;;;;22.17;10.50;;;;;;;1.28;81.49;98868.97;5031293;28;20103;-88
2021/12/08 05:24:42;;;;;;;24.55;10.75;;;;;;;1.29;81.16;98881.78;5033251;28;20041;-87
2021/12/08 05:27:22;;;;;;;19.70;10.13;;;;;;;1.29;81.32;98894.69;5037092;28;20029;-88
2021/12/08 05:30:20;;;;;;;28.13;11.73;;;;;;;1.29;81.37;98893.88;5030288;28;20034;-88
2021/12/08 05:32:50;;;;;;;21.40;10.30;;;;;;;1.27;81.69;98895.72;5005722;28;20492;-89
2021/12/08 05:35:23;;;;;;;19.65;10.70;;;;;;;1.29;81.75;98904.19;5026262;28;20051;-90
2021/12/08 05:37:56;;;;;;;21.88;10.13;;;;;;;1.27;81.65;98893.97;5017322;28;20456;-89
2021/12/08 05:40:43;;;;;;;23.15;10.55;;;;;;;1.30;81.78;98892.94;5033217;28;20037;-89
2021/12/08 05:43:12;;;;;;;22.20;10.20;;;;;;;1.29;82.24;98893.88;5020400;28;20048;-89
2021/12/08 05:45:43;;;;;;;20.42;9.93;;;;;;;1.28;81.79;98887.03;5015319;28;20061;-89
2021/12/08 05:48:14;;;;;;;20.90;10.23;;;;;;;1.24;81.55;98882.94;5023984;28;20025;-87
2021/12/08 05:50:55;;;;;;;27.48;10.77;;;;;;;1.21;81.66;98882.19;5024890;28;20049;-88
2021/12/08 05:53:25;;;;;;;22.48;10.43;;;;;;;1.21;81.57;98878.78;5025071;28;20478;-89
2021/12/08 05:55:53;;;;;;;21.80;9.38;;;;;;;1.20;81.70;98883.09;5028553;28;20049;-89
2021/12/08 05:58:24;;;;;;;22.50;10.70;;;;;;;1.18;81.58;98881.50;5034411;28;20144;-89
2021/12/08 06:01:00;;;;;;;21.73;10.02;;;;;;;1.18;81.82;98884.91;5031385;28;20295;-90
2021/12/08 06:03:26;;;;;;;19.38;9.45;;;;;;;1.21;81.94;98887.34;5032230;28;20423;-89
2021/12/08 06:05:56;;;;;;;24.80;10.82;;;;;;;1.20;81.92;98882.28;5031233;28;20132;-88
2021/12/08 06:08:31;;;;;;;18.05;9.23;;;;;;;1.25;81.94;98884.63;5030738;28;20056;-87
2021/12/08 06:11:04;;;;;;;23.67;9.68;;;;;;;1.25;81.48;98879.44;5051433;28;20024;-88
2021/12/08 06:13:30;;;;;;;23.00;9.55;;;;;;;1.30;81.96;98883.47;5031542;28;20033;-88
2021/12/08 06:15:57;;;;;;;25.17;10.68;;;;;;;1.32;81.65;98875.63;5033647;28;20048;-88
2021/12/08 06:18:26;;;;;;;26.95;11.48;;;;;;;1.36;81.57;98884.88;5035745;28;20037;-86
2021/12/08 06:21:00;;;;;;;26.02;12.75;;;;;;;1.41;81.77;98895.84;5024028;28;20057;-90
2021/12/08 06:23:36;;;;;;;22.52;11.82;;;;;;;1.47;81.50;98892.09;5032615;28;20044;-89
2021/12/08 06:26:06;;;;;;;27.00;12.13;;;;;;;1.50;81.55;98904.84;5034606;28;20033;-87
2021/12/08 06:28:32;;;;;;;27.08;12.32;;;;;;;1.53;81.55;98897.78;5032293;28;20355;-88
2021/12/08 06:31:02;;;;;;;24.52;10.45;;;;;;;1.50;80.94;98897.94;5022915;28;20030;-89
2021/12/08 06:33:28;;;;;;;23.02;11.07;;;;;;;1.55;81.27;98893.34;5031259;28;20037;-89
2021/12/08 06:36:13;;;;;;;23.45;10.48;;;;;;;1.55;80.61;98903.66;5032310;28;20352;-89
2021/12/08 06:38:42;;;;;;;20.20;9.90;;;;;;;1.50;81.11;98902.25;5031676;28;20129;-89
2021/12/08 06:41:17;;;;;;;23.35;11.07;;;;;;;1.51;81.09;98896.16;5030860;28;20033;-88
2021/12/08 06:43:51;;;;;;;23.75;11.40;;;;;;;1.49;81.39;98909.19;5032860;28;20034;-89
2021/12/08 06:46:17;;;;;;;28.73;11.23;;;;;;;1.44;81.04;98899.06;5033598;28;20052;-88
2021/12/08 06:48:48;;;;;;;25.70;11.05;;;;;;;1.46;81.55;98904.16;5032776;28;20339;-89
2021/12/08 06:51:25;;;;;;;27.65;12.32;;;;;;;1.50;81.72;98908.25;5038315;28;20060;-88
2021/12/08 06:54:02;;;;;;;20.83;10.70;;;;;;;1.64;83.53;98905.78;5036219;28;20132;-88
2021/12/08 06:56:48;;;;;;;22.33;11.05;;;;;;;1.84;83.00;98909.88;5033549;28;20100;-87
2021/12/08 06:59:21;;;;;;;27.15;10.95;;;;;;;2.03;81.44;98916.66;5029462;28;20052;-88
2021/12/08 07:02:06;;;;;;;22.45;10.70;;;;;;;2.05;79.88;98913.06;5036162;28;20034;-88
2021/12/08 07:04:57;;;;;;;23.67;9.88;;;;;;;2.15;79.33;98909.09;5035754;28;20042;-88
2021/12/08 07:07:28;;;;;;;21.55;10.68;;;;;;;2.14;79.57;98898.81;5041329;28;20140;-87
2021/12/08 07:10:10;;;;;;;19.75;10.35;;;;;;;2.09;79.08;98901.66;5036976;28;20033;-89
2021/12/08 07:12:46;;;;;;;21.77;11.27;;;;;;;2.05;79.14;98896.75;5034123;28;20037;-88
2021/12/08 07:15:35;;;;;;;;;;;;;;;;;;;;;
2021/12/08 07:18:22;;;;;;;24.67;12.10;;;;;;;1.98;79.71;98891.06;5009205;28;20892;-89
2021/12/08 07:21:34;;;;;;;19.77;11.15;;;;;;;1.87;79.71;98896.81;5035393;28;20428;-89
2021/12/08 07:24:37;;;;;;;23.88;12.77;;;;;;;1.78;80.28;98886.13;5034820;28;20041;-87
2021/12/08 07:27:09;;;;;;;25.15;12.38;;;;;;;1.71;80.25;98888.22;5038485;28;20464;-87
2021/12/08 07:29:56;;;;;;;24.40;12.00;;;;;;;1.72;80.43;98882.13;5045575;28;20453;-88
2021/12/08 07:32:27;;;;;;;21.58;10.90;;;;;;;1.74;79.91;98876.88;5044074;28;20038;-88
2021/12/08 07:34:58;;;;;;;21.48;10.85;;;;;;;1.74;80.24;98876.88;5036236;28;20037;-88
2021/12/08 07:37:28;;;;;;;22.85;10.85;;;;;;;1.76;79.99;98872.47;5036088;28;20053;-89
2021/12/08 07:40:17;;;;;;;22.45;12.52;;;;;;;1.73;80.14;98860.53;5038639;28;20049;-87
2021/12/08 07:42:48;;;;;;;26.55;12.38;;;;;;;1.78;80.09;98874.06;5037694;28;20038;-88
2021/12/08 07:45:18;;;;;;;35.83;13.13;;;;;;;1.84;79.74;98868.53;5036781;28;20029;-88
2021/12/08 07:47:46;;;;;;;22.63;12.02;;;;;;;1.89;79.58;98868.28;5036307;28;20041;-89
2021/12/08 07:50:18;;;;;;;22.05;11.27;;;;;;;1.94;79.48;98866.31;5042296;28;20074;-87
2021/12/08 07:52:47;;;;;;;24.08;10.38;;;;;;;1.97;78.92;98855.81;5039979;28;20049;-88
2021/12/08 07:55:28;;;;;;;28.65;11.25;;;;;;;1.96;78.89;98851.53;5042836;28;20057;-87
2021/12/08 07:57:55;;;;;;;19.13;9.82;;;;;;;1.98;78.86;98841.94;5039145;28;20041;-88
2021/12/08 08:00:29;;;;;;;22.38;11.05;;;;;;;1.96;79.15;98848.94;5037700;28;20477;-88
2021/12/08 08:02:56;;;;;;;26.75;11.85;;;;;;;2.01;79.00;98849.53;5034838;28;20057;-89
2021/12/08 08:05:27;;;;;;;31.25;11.10;;;;;;;2.03;78.84;98854.63;5032761;28;20034;-87
2021/12/08 08:07:56;;;;;;;27.08;12.10;;;;;;;2.02;78.75;98853.78;5032854;28;20033;-90
2021/12/08 08:10:27;;;;;;;;;;;;;;;2.13;78.49;98843.69;5025642;28;20397;-88
2021/12/08 08:12:59;;;;;;;21.55;9.98;;;;;;;2.22;78.77;98842.31;5034461;28;20341;-88
2021/12/08 08:15:27;;;;;;;27.05;10.45;;;;;;;2.30;78.39;98844.47;5032210;28;20049;-88
2021/12/08 08:17:55;;;;;;;22.70;11.13;;;;;;;2.34;77.87;98843.41;5034198;28;20029;-87
2021/12/08 08:20:31;;;;;;;25.40;10.85;;;;;;;2.38;77.88;98844.91;5035242;28;20119;-89
2021/12/08 08:22:59;;;;;;;22.88;9.73;;;;;;;2.39;77.13;98833.63;5031918;28;20085;-87
2021/12/08 08:25:32;;;;;;;20.73;10.20;;;;;;;2.36;77.17;98842.38;5031149;28;20037;-89
2021/12/08 08:28:00;;;;;;;17.88;9.43;;;;;;;2.43;76.71;98838.53;5025394;28;20118;-88
2021/12/08 08:30:31;;;;;;;25.63;9.65;;;;;;;2.42;76.74;98836.88;5032444;28;20029;-89
2021/12/08 08:33:00;;;;;;;21.70;10.20;;;;;;;2.47;76.84;98834.00;5033963;28;20014;-88
2021/12/08 08:35:29;;;;;;;;;;;;;;;2.46;76.64;98832.34;5030701;28;20126;-88
2021/12/08 08:37:58;;;;;;;24.23;9.38;;;;;;;2.54;76.50;98835.34;5031696;28;19967;-87
2021/12/08 08:40:30;;;;;;;18.40;9.40;;;;;;;2.55;76.20;98828.41;5032028;28;20095;-87
2021/12/08 08:42:56;;;;;;;28.70;10.48;;;;;;;2.58;76.44;98825.63;5034718;28;20041;-89
2021/12/08 08:45:28;;;;;;;23.98;10.93;;;;;;;2.58;76.16;98834.22;5037331;28;20107;-87
2021/12/08 08:48:10;;;;;;;21.48;10.23;;;;;;;2.58;76.49;98820.47;5033878;28;20530;-88
2021/12/08 08:50:46;;;;;;;19.15;9.57;;;;;;;2.72;75.63;98823.09;5032583;28;20117;-89
2021/12/08 08:53:18;;;;;;;20.85;9.68;;;;;;;2.80;75.37;98827.81;5032757;28;20185;-88
2021/12/08 08:55:49;;;;;;;24.38;9.55;;;;;;;2.95;74.67;98826.91;5033223;28;20334;-91
2021/12/08 08:58:24;;;;;;;22.65;10.18;;;;;;;3.04;74.65;98820.34;5026159;28;20085;-88
2021/12/08 09:01:04;;;;;;;18.52;9.40;;;;;;;3.09;73.98;98824.34;5041138;28;20025;-88
2021/12/08 09:03:34;;;;;;;20.17;8.98;;;;;;;3.15;73.85;98836.91;5035575;28;20442;-86
2021/12/08 09:06:25;;;;;;;20.90;8.85;;;;;;;3.20;72.79;98847.00;5033241;28;20021;-89
2021/12/08 09:09:01;;;;;;;23.38;8.43;;;;;;;3.19;73.66;98840.16;5039720;28;20061;-87
2021/12/08 09:11:35;;;;;;;25.73;9.55;;;;;;;3.23;73.41;98852.00;5034571;28;20034;-86
2021/12/08 09:14:15;;;;;;;19.98;7.75;;;;;;;3.24;72.84;98858.00;5036200;28;20033;-89
2021/12/08 09:16:55;;;;;;;18.83;7.72;;;;;;;3.27;72.60;98860.41;5033213;28;20033;-88
2021/12/08 09:19:28;;;;;;;21.42;8.68;;;;;;;3.27;72.58;98856.06;5034000;28;20457;-89
2021/12/08 09:22:19;;;;;;;27.00;8.27;;;;;;;3.29;72.60;98850.78;5033375;28;20041;-88
2021/12/08 09:25:13;;;;;;;13.50;7.32;;;;;;;3.34;72.42;98859.13;5025256;28;20254;-87
2021/12/08 09:27:51;;;;;;;17.48;8.30;;;;;;;3.36;72.56;98841.72;5014477;28;20038;-87
2021/12/08 09:30:41;;;;;;;24.10;9.43;;;;;;;3.44;72.78;98852.44;5021126;28;20034;-88
2021/12/08 09:33:14;;;;;;;16.98;7.93;;;;;;;3.50;72.44;98846.91;5038071;28;20072;-89
2021/12/08 09:35:57;;;;;;;14.38;7.68;;;;;;;3.49;73.18;98839.22;5035278;28;20039;-90
2021/12/08 09:38:36;;;;;;;19.60;8.05;;;;;;;3.54;73.12;98832.81;5033128;28;20124;-87
2021/12/08 09:41:29;;;;;;;14.05;7.43;;;;;;;3.51;73.04;98819.22;5020032;28;20041;-89
2021/12/08 09:44:00;;;;;;;16.80;7.93;;;;;;;3.49;73.42;98814.16;5031552;28;20037;-88
2021/12/08 09:46:48;;;;;;;14.02;6.95;;;;;;;3.46;73.71;98809.16;5025221;28;20076;-89
2021/12/08 09:49:22;;;;;;;21.50;9.40;;;;;;;3.53;73.73;98804.41;5032770;28;20034;-87
2021/12/08 09:51:48;;;;;;;21.10;8.55;;;;;;;3.51;73.19;98796.72;5032170;28;20372;-88
2021/12/08 09:54:16;;;;;;;24.60;7.20;;;;;;;3.52;72.48;98805.34;5034956;28;20029;-88
2021/12/08 09:57:02;;;;;;;16.77;7.57;;;;;;;3.42;72.25;98799.91;5039400;28;20171;-89
2021/12/08 09:59:32;;;;;;;13.25;6.95;;;;;;;3.46;72.81;98787.59;5031331;28;20034;-89
2021/12/08 10:01:58;;;;;;;21.60;9.52;;;;;;;3.57;73.35;98788.59;5022855;28;20038;-89
2021/12/08 10:04:23;;;;;;;15.18;7.47;;;;;;;3.64;73.01;98787.28;5032802;28;20037;-88
2021/12/08 10:06:59;;;;;;;25.88;8.27;;;;;;;3.75;72.34;98785.78;5028308;28;20050;-86
2021/12/08 10:09:32;;;;;;;30.00;8.60;;;;;;;3.83;71.44;98780.94;5038502;28;20044;-90
2021/12/08 10:12:15;;;;;;;;;;;;;;;;;;;;;
2021/12/08 10:14:41;;;;;;;25.23;8.95;;;;;;;3.95;71.12;98772.34;5056823;22;20124;-70
2021/12/08 10:17:07;;;;;;;23.70;10.50;;;;;;;3.99;70.92;98771.22;5013007;28;20121;-70
2021/12/08 10:19:32;;;;;;;22.73;8.10;;;;;;;4.01;71.02;98765.97;5014787;28;20037;-70
2021/12/08 10:21:58;;;;;;;28.98;8.55;;;;;;;4.02;70.66;98767.63;5006795;28;20075;-68
2021/12/08 10:24:28;;;;;;;26.52;8.10;;;;;;;4.03;70.58;98764.91;5006991;28;20029;-70
2021/12/08 10:27:05;;;;;;;24.35;8.32;;;;;;;4.04;70.90;98761.41;5013797;28;20088;-70
2021/12/08 10:29:32;;;;;;;19.63;8.55;;;;;;;4.05;70.37;98757.88;5011171;28;20112;-68
2021/12/08 10:32:00;;;;;;;29.30;9.00;;;;;;;4.10;70.41;98765.34;5009320;28;20033;-69
2021/12/08 10:34:34;;;;;;;24.98;8.40;;;;;;;4.12;70.24;98769.53;5011392;28;20034;-69
2021/12/08 10:37:05;;;;;;;17.58;7.80;;;;;;;4.15;69.95;98770.22;5011550;28;20037;-68
2021/12/08 10:39:46;;;;;;;39.42;10.45;;;;;;;4.11;70.33;98783.41;5023235;28;20681;-68
2021/12/08 10:42:18;;;;;;;16.45;8.45;;;;;;;4.10;70.27;98786.09;5016921;28;20112;-70
2021/12/08 10:47:47;;;;;;;16.00;7.40;;;;;;;4.22;70.75;98787.06;5006646;28;20109;-71
2021/12/08 10:56:03;;;;;;;14.02;7.35;;;;;;;4.29;70.57;98791.75;5012556;28;20219;-68
2021/12/08 10:58:34;;;;;;;12.73;7.50;;;;;;;4.28;70.37;98786.66;5017952;28;20499;-70
2021/12/08 11:01:09;;;;;;;14.88;7.35;;;;;;;4.30;70.43;98795.16;5011576;28;20045;-71
2021/12/08 11:03:36;;;;;;;18.92;7.00;;;;;;;4.21;70.25;98795.78;5005629;28;20022;-69
2021/12/08 11:06:04;;;;;;;11.75;4.50;;;;;;;4.12;70.23;98782.47;5011510;28;20020;-69
2021/12/08 11:08:36;;;;;;;8.75;4.20;;;;;;;4.05;70.69;98770.84;5012116;28;20560;-69
2021/12/08 11:11:14;;;;;;;8.02;3.55;;;;;;;4.01;71.12;98753.81;5009622;28;20109;-69
2021/12/08 11:13:42;;;;;;;7.47;3.90;;;;;;;3.91;71.33;98755.34;4996375;28;20030;-69
2021/12/08 11:16:13;;;;;;;10.45;4.32;;;;;;;3.97;71.93;98754.09;5013862;28;20072;-68
2021/12/08 11:18:42;;;;;;;9.57;4.30;;;;;;;3.94;72.32;98757.75;5017643;28;20089;-69
2021/12/08 11:21:19;;;;;;;9.63;4.25;;;;;;;3.94;71.91;98762.94;5022239;28;20021;-73
2021/12/08 11:23:48;;;;;;;14.10;5.40;;;;;;;3.96;72.14;98753.28;5019863;28;20439;-69
2021/12/08 11:26:22;;;;;;;12.63;3.93;;;;;;;4.06;71.51;98746.56;5016750;28;20685;-69
2021/12/08 11:28:57;;;;;;;13.77;5.22;;;;;;;4.10;71.56;98731.63;5014225;28;20045;-69
2021/12/08 11:31:22;;;;;;;13.25;4.75;;;;;;;4.04;72.52;98742.41;5015549;28;20133;-68
2021/12/08 11:33:58;;;;;;;8.35;4.22;;;;;;;3.99;72.08;98728.91;5009801;28;20030;-71
2021/12/08 11:36:25;;;;;;;8.82;4.35;;;;;;;4.02;73.17;98733.91;5019613;28;20056;-69
2021/12/08 11:38:51;;;;;;;7.85;4.43;;;;;;;4.00;72.96;98735.75;5022462;28;20026;-73
2021/12/08 11:41:36;;;;;;;11.45;4.47;;;;;;;3.92;73.62;98733.66;5014598;28;20073;-69
2021/12/08 11:44:12;;;;;;;13.88;4.57;;;;;;;3.97;73.43;98742.00;5016339;28;20083;-71
2021/12/08 11:47:01;;;;;;;9.02;4.32;;;;;;;4.08;73.46;98757.69;5031613;22;20029;-68
2021/12/08 11:49:26;;;;;;;9.93;4.63;;;;;;;4.12;72.77;98769.53;5052837;28;20036;-69
2021/12/08 11:51:58;;;;;;;11.27;4.03;;;;;;;4.15;72.88;98784.03;5045559;28;20509;-67
2021/12/08 11:54:27;;;;;;;9.70;4.35;;;;;;;4.17;72.86;98791.72;5050987;28;20021;-68
2021/12/08 11:56:59;;;;;;;13.83;4.40;;;;;;;4.22;72.09;98787.06;5050765;28;21788;-68
2021/12/08 11:59:25;;;;;;;12.88;4.75;;;;;;;4.18;72.73;98793.38;5050520;28;20320;-67
2021/12/08 12:01:50;;;;;;;10.95;4.43;;;;;;;4.20;72.94;98794.97;5048674;28;20041;-67
2021/12/08 12:04:15;;;;;;;14.65;5.03;;;;;;;4.17;73.24;98802.94;5050869;28;20033;-68
2021/12/08 12:06:41;;;;;;;14.68;5.15;;;;;;;4.16;73.67;98803.03;5049910;28;20123;-71
2021/12/08 12:09:09;;;;;;;10.82;4.60;;;;;;;4.20;73.43;98788.94;5049093;28;20108;-66
2021/12/08 12:11:35;;;;;;;10.02;4.03;;;;;;;4.23;73.63;98789.56;5046195;28;20037;-67
2021/12/08 12:14:00;;;;;;;18.90;4.85;;;;;;;4.18;73.61;98790.78;5043188;28;20075;-67
2021/12/08 12:16:27;;;;;;;9.73;4.40;;;;;;;4.17;73.44;98781.34;5049096;28;20028;-68
2021/12/08 12:18:58;;;;;;;10.68;4.65;;;;;;;4.18;73.50;98785.59;5049700;28;20041;-68
2021/12/08 12:21:33;;;;;;;11.45;4.70;;;;;;;4.23;73.60;98788.75;5050054;28;20612;-67
2021/12/08 12:24:43;;;;;;;15.68;4.38;;;;;;;4.11;74.09;98788.56;5045626;28;20080;-68
2021/12/08 12:27:21;;;;;;;11.55;4.85;;;;;;;4.25;77.84;98790.28;5043738;28;20045;-67
2021/12/08 12:30:06;;;;;;;19.63;5.28;;;;;;;4.38;75.66;98774.78;5050706;28;20029;-65
2021/12/08 12:32:51;;;;;;;13.25;5.30;;;;;;;4.36;77.21;98774.84;5049050;28;20215;-68
2021/12/08 12:35:27;;;;;;;14.85;4.20;;;;;;;4.33;74.24;98788.03;5044754;28;20040;-67
2021/12/08 12:38:11;;;;;;;11.52;4.85;;;;;;;4.26;73.84;98794.53;5050129;28;20127;-68
2021/12/08 12:40:46;;;;;;;13.25;4.47;;;;;;;4.21;74.54;98799.19;5048901;28;20071;-69
2021/12/08 12:43:23;;;;;;;21.92;5.13;;;;;;;4.10;74.69;98797.31;5049894;28;20053;-67